sensor_id;sensor_type;location;lat;lon;timestamp;P1;durP1;ratioP1;P2;durP2;ratioP2
8702;SDS011;9002;42.708;23.186;2024-03-02T00:02:23;23.05;;;13.00;;
8702;SDS011;9002;42.708;23.186;2024-03-02T00:04:51;22.75;;;11.65;;
8702;SDS011;9002;42.708;23.186;2024-03-02T00:07:18;20.70;;;12.32;;
8702;SDS011;9002;42.708;23.186;2024-03-02T00:09:47;23.70;;;12.88;;
8702;SDS011;9002;42.708;23.186;2024-03-02T00:12:15;22.52;;;11.93;;
8702;SDS011;9002;42.708;23.186;2024-03-02T00:14:42;25.60;;;13.07;;
8702;SDS011;9002;42.708;23.186;2024-03-02T00:17:12;22.92;;;13.57;;
8702;SDS011;9002;42.708;23.186;2024-03-02T00:19:47;21.73;;;13.20;;
8702;SDS011;9002;42.708;23.186;2024-03-02T00:22:16;24.35;;;13.25;;
8702;SDS011;9002;42.708;23.186;2024-03-02T00:24:42;20.55;;;11.55;;
8702;SDS011;9002;42.708;23.186;2024-03-02T00:27:09;21.45;;;12.23;;
8702;SDS011;9002;42.708;23.186;2024-03-02T00:29:40;22.63;;;13.13;;
8702;SDS011;9002;42.708;23.186;2024-03-02T00:32:09;20.27;;;12.48;;
8702;SDS011;9002;42.708;23.186;2024-03-02T00:34:40;21.30;;;13.45;;
8702;SDS011;9002;42.708;23.186;2024-03-02T00:37:07;23.00;;;12.68;;
8702;SDS011;9002;42.708;23.186;2024-03-02T00:39:36;22.70;;;12.90;;
8702;SDS011;9002;42.708;23.186;2024-03-02T00:42:03;18.10;;;10.48;;
8702;SDS011;9002;42.708;23.186;2024-03-02T00:44:31;17.80;;;10.88;;
8702;SDS011;9002;42.708;23.186;2024-03-02T00:47:02;23.85;;;13.05;;
8702;SDS011;9002;42.708;23.186;2024-03-02T00:49:30;19.55;;;11.52;;
8702;SDS011;9002;42.708;23.186;2024-03-02T00:51:57;22.17;;;12.85;;
8702;SDS011;9002;42.708;23.186;2024-03-02T00:54:25;25.27;;;12.85;;
8702;SDS011;9002;42.708;23.186;2024-03-02T00:56:55;23.35;;;12.45;;
8702;SDS011;9002;42.708;23.186;2024-03-02T00:59:24;21.15;;;11.90;;
8702;SDS011;9002;42.708;23.186;2024-03-02T01:01:51;21.60;;;12.20;;
8702;SDS011;9002;42.708;23.186;2024-03-02T01:04:19;16.52;;;11.43;;
8702;SDS011;9002;42.708;23.186;2024-03-02T01:06:46;21.67;;;11.45;;
8702;SDS011;9002;42.708;23.186;2024-03-02T01:09:13;18.27;;;10.20;;
8702;SDS011;9002;42.708;23.186;2024-03-02T01:11:40;20.92;;;11.48;;
8702;SDS011;9002;42.708;23.186;2024-03-02T01:14:08;19.83;;;11.48;;
8702;SDS011;9002;42.708;23.186;2024-03-02T01:16:35;17.25;;;10.73;;
8702;SDS011;9002;42.708;23.186;2024-03-02T01:19:02;19.33;;;10.95;;
8702;SDS011;9002;42.708;23.186;2024-03-02T01:21:29;21.27;;;9.73;;
8702;SDS011;9002;42.708;23.186;2024-03-02T01:23:56;21.88;;;10.95;;
8702;SDS011;9002;42.708;23.186;2024-03-02T01:26:23;16.98;;;11.00;;
8702;SDS011;9002;42.708;23.186;2024-03-02T01:28:50;22.45;;;10.68;;
8702;SDS011;9002;42.708;23.186;2024-03-02T01:33:45;16.42;;;9.55;;
8702;SDS011;9002;42.708;23.186;2024-03-02T01:36:12;16.48;;;10.05;;
8702;SDS011;9002;42.708;23.186;2024-03-02T01:38:39;17.75;;;10.80;;
8702;SDS011;9002;42.708;23.186;2024-03-02T01:41:06;19.90;;;11.70;;
8702;SDS011;9002;42.708;23.186;2024-03-02T01:43:33;18.52;;;10.93;;
8702;SDS011;9002;42.708;23.186;2024-03-02T01:46:00;18.25;;;10.57;;
8702;SDS011;9002;42.708;23.186;2024-03-02T01:48:29;21.52;;;10.73;;
8702;SDS011;9002;42.708;23.186;2024-03-02T01:50:56;19.08;;;11.40;;
8702;SDS011;9002;42.708;23.186;2024-03-02T01:53:23;18.55;;;10.50;;
8702;SDS011;9002;42.708;23.186;2024-03-02T01:55:50;19.70;;;11.38;;
8702;SDS011;9002;42.708;23.186;2024-03-02T01:58:17;22.67;;;13.35;;
8702;SDS011;9002;42.708;23.186;2024-03-02T02:00:43;20.20;;;10.88;;
8702;SDS011;9002;42.708;23.186;2024-03-02T02:03:11;20.02;;;10.73;;
8702;SDS011;9002;42.708;23.186;2024-03-02T02:05:39;19.88;;;10.82;;
8702;SDS011;9002;42.708;23.186;2024-03-02T02:08:08;21.63;;;11.55;;
8702;SDS011;9002;42.708;23.186;2024-03-02T02:10:36;17.63;;;11.43;;
8702;SDS011;9002;42.708;23.186;2024-03-02T02:13:03;21.92;;;12.55;;
8702;SDS011;9002;42.708;23.186;2024-03-02T02:15:30;22.63;;;12.05;;
8702;SDS011;9002;42.708;23.186;2024-03-02T02:18:00;22.65;;;12.65;;
8702;SDS011;9002;42.708;23.186;2024-03-02T02:20:27;24.08;;;14.27;;
8702;SDS011;9002;42.708;23.186;2024-03-02T02:22:56;25.13;;;13.18;;
8702;SDS011;9002;42.708;23.186;2024-03-02T02:25:22;25.58;;;13.57;;
8702;SDS011;9002;42.708;23.186;2024-03-02T02:27:50;22.20;;;12.90;;
8702;SDS011;9002;42.708;23.186;2024-03-02T02:30:20;23.92;;;13.65;;
8702;SDS011;9002;42.708;23.186;2024-03-02T02:32:48;23.30;;;13.75;;
8702;SDS011;9002;42.708;23.186;2024-03-02T02:35:15;22.98;;;13.73;;
8702;SDS011;9002;42.708;23.186;2024-03-02T02:40:12;24.50;;;12.88;;
8702;SDS011;9002;42.708;23.186;2024-03-02T02:42:39;21.45;;;13.10;;
8702;SDS011;9002;42.708;23.186;2024-03-02T02:45:06;24.75;;;14.07;;
8702;SDS011;9002;42.708;23.186;2024-03-02T02:47:33;23.85;;;13.07;;
8702;SDS011;9002;42.708;23.186;2024-03-02T02:50:01;25.75;;;14.43;;
8702;SDS011;9002;42.708;23.186;2024-03-02T02:52:32;23.55;;;14.27;;
8702;SDS011;9002;42.708;23.186;2024-03-02T02:55:02;25.67;;;13.40;;
8702;SDS011;9002;42.708;23.186;2024-03-02T02:57:31;24.50;;;14.00;;
8702;SDS011;9002;42.708;23.186;2024-03-02T03:00:01;22.90;;;13.23;;
8702;SDS011;9002;42.708;23.186;2024-03-02T03:02:35;28.38;;;13.63;;
8702;SDS011;9002;42.708;23.186;2024-03-02T03:05:04;23.90;;;13.45;;
8702;SDS011;9002;42.708;23.186;2024-03-02T03:07:31;28.60;;;14.50;;
8702;SDS011;9002;42.708;23.186;2024-03-02T03:09:59;25.88;;;13.52;;
8702;SDS011;9002;42.708;23.186;2024-03-02T03:12:26;24.60;;;14.07;;
8702;SDS011;9002;42.708;23.186;2024-03-02T03:14:54;24.92;;;12.35;;
8702;SDS011;9002;42.708;23.186;2024-03-02T03:17:21;25.52;;;13.70;;
8702;SDS011;9002;42.708;23.186;2024-03-02T03:19:48;23.88;;;14.15;;
8702;SDS011;9002;42.708;23.186;2024-03-02T03:22:15;24.95;;;14.77;;
8702;SDS011;9002;42.708;23.186;2024-03-02T03:24:42;25.05;;;12.75;;
8702;SDS011;9002;42.708;23.186;2024-03-02T03:27:09;24.90;;;13.93;;
8702;SDS011;9002;42.708;23.186;2024-03-02T03:29:36;26.38;;;14.57;;
8702;SDS011;9002;42.708;23.186;2024-03-02T03:32:06;26.27;;;12.55;;
8702;SDS011;9002;42.708;23.186;2024-03-02T03:34:33;26.38;;;14.50;;
8702;SDS011;9002;42.708;23.186;2024-03-02T03:37:00;26.90;;;13.40;;
8702;SDS011;9002;42.708;23.186;2024-03-02T03:39:27;24.23;;;13.88;;
8702;SDS011;9002;42.708;23.186;2024-03-02T03:41:54;26.98;;;15.63;;
8702;SDS011;9002;42.708;23.186;2024-03-02T03:44:21;23.70;;;14.48;;
8702;SDS011;9002;42.708;23.186;2024-03-02T03:46:48;25.20;;;14.10;;
8702;SDS011;9002;42.708;23.186;2024-03-02T03:49:16;28.02;;;16.98;;
8702;SDS011;9002;42.708;23.186;2024-03-02T03:51:43;29.08;;;16.60;;
8702;SDS011;9002;42.708;23.186;2024-03-02T03:54:10;32.70;;;17.48;;
8702;SDS011;9002;42.708;23.186;2024-03-02T03:56:37;31.27;;;16.13;;
8702;SDS011;9002;42.708;23.186;2024-03-02T03:59:05;28.70;;;15.40;;
8702;SDS011;9002;42.708;23.186;2024-03-02T04:01:32;29.48;;;16.60;;
8702;SDS011;9002;42.708;23.186;2024-03-02T04:03:59;30.65;;;16.10;;
8702;SDS011;9002;42.708;23.186;2024-03-02T04:06:28;32.38;;;16.05;;
8702;SDS011;9002;42.708;23.186;2024-03-02T04:08:55;30.75;;;16.42;;
8702;SDS011;9002;42.708;23.186;2024-03-02T04:11:22;27.58;;;15.18;;
8702;SDS011;9002;42.708;23.186;2024-03-02T04:13:49;29.67;;;15.98;;
8702;SDS011;9002;42.708;23.186;2024-03-02T04:16:16;26.70;;;14.63;;
8702;SDS011;9002;42.708;23.186;2024-03-02T04:18:43;33.90;;;16.67;;
8702;SDS011;9002;42.708;23.186;2024-03-02T04:21:10;31.73;;;18.15;;
8702;SDS011;9002;42.708;23.186;2024-03-02T04:23:39;30.33;;;17.02;;
8702;SDS011;9002;42.708;23.186;2024-03-02T04:26:06;30.65;;;17.42;;
8702;SDS011;9002;42.708;23.186;2024-03-02T04:28:33;32.65;;;18.17;;
8702;SDS011;9002;42.708;23.186;2024-03-02T04:31:00;29.38;;;16.33;;
8702;SDS011;9002;42.708;23.186;2024-03-02T04:33:26;30.45;;;16.52;;
8702;SDS011;9002;42.708;23.186;2024-03-02T04:35:53;29.23;;;17.05;;
8702;SDS011;9002;42.708;23.186;2024-03-02T04:38:20;31.67;;;17.73;;
8702;SDS011;9002;42.708;23.186;2024-03-02T04:40:49;29.75;;;17.13;;
8702;SDS011;9002;42.708;23.186;2024-03-02T04:43:16;32.75;;;18.30;;
8702;SDS011;9002;42.708;23.186;2024-03-02T04:45:44;30.17;;;16.40;;
8702;SDS011;9002;42.708;23.186;2024-03-02T04:48:11;30.20;;;17.33;;
8702;SDS011;9002;42.708;23.186;2024-03-02T04:50:39;34.38;;;17.60;;
8702;SDS011;9002;42.708;23.186;2024-03-02T04:53:06;30.63;;;17.00;;
8702;SDS011;9002;42.708;23.186;2024-03-02T04:55:33;33.20;;;16.92;;
8702;SDS011;9002;42.708;23.186;2024-03-02T04:58:30;32.38;;;17.42;;
8702;SDS011;9002;42.708;23.186;2024-03-02T05:00:57;34.40;;;19.50;;
8702;SDS011;9002;42.708;23.186;2024-03-02T05:03:24;31.52;;;18.02;;
8702;SDS011;9002;42.708;23.186;2024-03-02T05:05:51;35.42;;;16.70;;
8702;SDS011;9002;42.708;23.186;2024-03-02T05:08:18;30.75;;;17.55;;
8702;SDS011;9002;42.708;23.186;2024-03-02T05:10:45;35.08;;;18.30;;
8702;SDS011;9002;42.708;23.186;2024-03-02T05:13:12;39.38;;;20.25;;
8702;SDS011;9002;42.708;23.186;2024-03-02T05:15:39;42.25;;;22.40;;
8702;SDS011;9002;42.708;23.186;2024-03-02T05:18:06;35.17;;;19.60;;
8702;SDS011;9002;42.708;23.186;2024-03-02T05:20:33;32.50;;;18.38;;
8702;SDS011;9002;42.708;23.186;2024-03-02T05:23:01;31.95;;;17.73;;
8702;SDS011;9002;42.708;23.186;2024-03-02T05:25:27;33.65;;;18.25;;
8702;SDS011;9002;42.708;23.186;2024-03-02T05:27:55;35.08;;;18.48;;
8702;SDS011;9002;42.708;23.186;2024-03-02T05:30:21;33.05;;;18.80;;
8702;SDS011;9002;42.708;23.186;2024-03-02T05:32:52;34.28;;;19.60;;
8702;SDS011;9002;42.708;23.186;2024-03-02T05:35:19;36.72;;;20.63;;
8702;SDS011;9002;42.708;23.186;2024-03-02T05:37:46;40.35;;;23.08;;
8702;SDS011;9002;42.708;23.186;2024-03-02T05:40:14;43.08;;;22.75;;
8702;SDS011;9002;42.708;23.186;2024-03-02T05:42:41;36.53;;;20.05;;
8702;SDS011;9002;42.708;23.186;2024-03-02T05:47:35;40.13;;;21.25;;
8702;SDS011;9002;42.708;23.186;2024-03-02T05:50:05;36.35;;;21.35;;
8702;SDS011;9002;42.708;23.186;2024-03-02T05:52:33;38.88;;;20.58;;
8702;SDS011;9002;42.708;23.186;2024-03-02T05:55:00;38.17;;;20.55;;
8702;SDS011;9002;42.708;23.186;2024-03-02T05:57:27;40.22;;;19.77;;
8702;SDS011;9002;42.708;23.186;2024-03-02T06:00:10;36.47;;;22.05;;
8702;SDS011;9002;42.708;23.186;2024-03-02T06:02:39;38.35;;;21.65;;
8702;SDS011;9002;42.708;23.186;2024-03-02T06:05:07;38.35;;;21.52;;
8702;SDS011;9002;42.708;23.186;2024-03-02T06:07:35;35.88;;;20.25;;
8702;SDS011;9002;42.708;23.186;2024-03-02T06:10:02;31.20;;;18.83;;
8702;SDS011;9002;42.708;23.186;2024-03-02T06:12:30;36.40;;;19.80;;
8702;SDS011;9002;42.708;23.186;2024-03-02T06:14:58;37.05;;;21.45;;
8702;SDS011;9002;42.708;23.186;2024-03-02T06:17:25;37.83;;;19.73;;
8702;SDS011;9002;42.708;23.186;2024-03-02T06:19:52;34.35;;;19.20;;
8702;SDS011;9002;42.708;23.186;2024-03-02T06:22:20;32.90;;;19.23;;
8702;SDS011;9002;42.708;23.186;2024-03-02T06:24:50;29.85;;;16.65;;
8702;SDS011;9002;42.708;23.186;2024-03-02T06:27:17;30.40;;;14.27;;
8702;SDS011;9002;42.708;23.186;2024-03-02T06:29:44;30.50;;;15.32;;
8702;SDS011;9002;42.708;23.186;2024-03-02T06:32:11;25.63;;;14.32;;
8702;SDS011;9002;42.708;23.186;2024-03-02T06:34:36;26.83;;;14.57;;
8702;SDS011;9002;42.708;23.186;2024-03-02T06:37:04;27.23;;;14.57;;
8702;SDS011;9002;42.708;23.186;2024-03-02T06:39:32;28.40;;;16.25;;
8702;SDS011;9002;42.708;23.186;2024-03-02T06:42:01;33.88;;;16.55;;
8702;SDS011;9002;42.708;23.186;2024-03-02T06:44:28;27.40;;;16.25;;
8702;SDS011;9002;42.708;23.186;2024-03-02T06:46:55;31.50;;;15.93;;
8702;SDS011;9002;42.708;23.186;2024-03-02T06:49:22;31.85;;;16.67;;
8702;SDS011;9002;42.708;23.186;2024-03-02T06:51:49;33.13;;;15.43;;
8702;SDS011;9002;42.708;23.186;2024-03-02T06:54:16;36.92;;;17.80;;
8702;SDS011;9002;42.708;23.186;2024-03-02T06:56:45;31.08;;;17.45;;
8702;SDS011;9002;42.708;23.186;2024-03-02T06:59:12;31.10;;;16.92;;
8702;SDS011;9002;42.708;23.186;2024-03-02T07:01:39;31.63;;;16.20;;
8702;SDS011;9002;42.708;23.186;2024-03-02T07:04:06;33.33;;;16.33;;
8702;SDS011;9002;42.708;23.186;2024-03-02T07:06:33;32.03;;;16.50;;
8702;SDS011;9002;42.708;23.186;2024-03-02T07:09:00;28.30;;;15.23;;
8702;SDS011;9002;42.708;23.186;2024-03-02T07:11:27;28.20;;;15.02;;
8702;SDS011;9002;42.708;23.186;2024-03-02T07:13:56;29.02;;;16.05;;
8702;SDS011;9002;42.708;23.186;2024-03-02T07:16:23;30.30;;;15.70;;
8702;SDS011;9002;42.708;23.186;2024-03-02T07:18:55;30.42;;;14.82;;
8702;SDS011;9002;42.708;23.186;2024-03-02T07:21:22;28.50;;;15.95;;
8702;SDS011;9002;42.708;23.186;2024-03-02T07:23:49;32.97;;;15.50;;
8702;SDS011;9002;42.708;23.186;2024-03-02T07:26:17;29.80;;;15.68;;
8702;SDS011;9002;42.708;23.186;2024-03-02T07:28:45;28.98;;;16.17;;
8702;SDS011;9002;42.708;23.186;2024-03-02T07:31:15;30.95;;;16.15;;
8702;SDS011;9002;42.708;23.186;2024-03-02T07:33:43;28.08;;;14.40;;
8702;SDS011;9002;42.708;23.186;2024-03-02T07:36:11;35.72;;;16.38;;
8702;SDS011;9002;42.708;23.186;2024-03-02T07:38:38;31.00;;;15.35;;
8702;SDS011;9002;42.708;23.186;2024-03-02T07:41:05;30.38;;;14.93;;
8702;SDS011;9002;42.708;23.186;2024-03-02T07:43:32;29.10;;;14.63;;
8702;SDS011;9002;42.708;23.186;2024-03-02T07:46:00;31.75;;;17.17;;
8702;SDS011;9002;42.708;23.186;2024-03-02T07:48:29;34.70;;;15.43;;
8702;SDS011;9002;42.708;23.186;2024-03-02T07:50:57;35.05;;;18.50;;
8702;SDS011;9002;42.708;23.186;2024-03-02T07:53:24;29.48;;;16.17;;
8702;SDS011;9002;42.708;23.186;2024-03-02T07:55:51;32.78;;;17.27;;
8702;SDS011;9002;42.708;23.186;2024-03-02T07:58:18;30.77;;;15.13;;
8702;SDS011;9002;42.708;23.186;2024-03-02T08:00:45;31.73;;;16.35;;
8702;SDS011;9002;42.708;23.186;2024-03-02T08:03:13;32.08;;;16.75;;
8702;SDS011;9002;42.708;23.186;2024-03-02T08:05:42;31.40;;;16.35;;
8702;SDS011;9002;42.708;23.186;2024-03-02T08:08:09;28.02;;;16.08;;
8702;SDS011;9002;42.708;23.186;2024-03-02T08:10:37;32.40;;;16.63;;
8702;SDS011;9002;42.708;23.186;2024-03-02T08:13:04;34.35;;;17.13;;
8702;SDS011;9002;42.708;23.186;2024-03-02T08:15:31;31.15;;;16.23;;
8702;SDS011;9002;42.708;23.186;2024-03-02T08:17:58;32.08;;;16.17;;
8702;SDS011;9002;42.708;23.186;2024-03-02T08:20:25;30.17;;;15.95;;
8702;SDS011;9002;42.708;23.186;2024-03-02T08:22:54;31.95;;;16.20;;
8702;SDS011;9002;42.708;23.186;2024-03-02T08:25:21;30.52;;;15.70;;
8702;SDS011;9002;42.708;23.186;2024-03-02T08:27:48;29.95;;;14.70;;
8702;SDS011;9002;42.708;23.186;2024-03-02T08:30:15;26.38;;;14.82;;
8702;SDS011;9002;42.708;23.186;2024-03-02T08:32:43;28.58;;;13.95;;
8702;SDS011;9002;42.708;23.186;2024-03-02T08:35:10;29.65;;;15.77;;
8702;SDS011;9002;42.708;23.186;2024-03-02T08:37:38;25.20;;;13.38;;
8702;SDS011;9002;42.708;23.186;2024-03-02T08:40:08;32.47;;;17.20;;
8702;SDS011;9002;42.708;23.186;2024-03-02T08:42:35;30.05;;;14.88;;
8702;SDS011;9002;42.708;23.186;2024-03-02T08:45:03;28.73;;;15.23;;
8702;SDS011;9002;42.708;23.186;2024-03-02T08:47:31;28.13;;;14.50;;
8702;SDS011;9002;42.708;23.186;2024-03-02T08:49:58;33.35;;;15.15;;
8702;SDS011;9002;42.708;23.186;2024-03-02T08:52:25;31.27;;;17.00;;
8702;SDS011;9002;42.708;23.186;2024-03-02T08:54:53;28.60;;;16.17;;
8702;SDS011;9002;42.708;23.186;2024-03-02T08:57:21;26.67;;;15.43;;
8702;SDS011;9002;42.708;23.186;2024-03-02T08:59:48;28.77;;;15.13;;
8702;SDS011;9002;42.708;23.186;2024-03-02T09:02:15;34.72;;;15.05;;
8702;SDS011;9002;42.708;23.186;2024-03-02T09:04:42;26.00;;;14.18;;
8702;SDS011;9002;42.708;23.186;2024-03-02T09:07:09;29.08;;;14.70;;
8702;SDS011;9002;42.708;23.186;2024-03-02T09:09:36;25.45;;;14.63;;
8702;SDS011;9002;42.708;23.186;2024-03-02T09:12:05;26.85;;;15.45;;
8702;SDS011;9002;42.708;23.186;2024-03-02T09:14:33;30.48;;;16.55;;
8702;SDS011;9002;42.708;23.186;2024-03-02T09:17:01;29.83;;;15.65;;
8702;SDS011;9002;42.708;23.186;2024-03-02T09:19:29;30.35;;;16.55;;
8702;SDS011;9002;42.708;23.186;2024-03-02T09:21:56;30.58;;;16.25;;
8702;SDS011;9002;42.708;23.186;2024-03-02T09:24:30;34.35;;;18.38;;
8702;SDS011;9002;42.708;23.186;2024-03-02T09:26:58;33.35;;;17.92;;
8702;SDS011;9002;42.708;23.186;2024-03-02T09:29:25;32.70;;;16.63;;
8702;SDS011;9002;42.708;23.186;2024-03-02T09:31:53;29.65;;;16.50;;
8702;SDS011;9002;42.708;23.186;2024-03-02T09:34:20;30.85;;;16.73;;
8702;SDS011;9002;42.708;23.186;2024-03-02T09:36:47;27.52;;;15.05;;
8702;SDS011;9002;42.708;23.186;2024-03-02T09:39:16;26.60;;;15.18;;
8702;SDS011;9002;42.708;23.186;2024-03-02T09:41:43;29.38;;;17.52;;
8702;SDS011;9002;42.708;23.186;2024-03-02T09:44:13;28.73;;;15.60;;
8702;SDS011;9002;42.708;23.186;2024-03-02T09:46:41;24.33;;;13.77;;
8702;SDS011;9002;42.708;23.186;2024-03-02T09:49:10;28.27;;;15.90;;
8702;SDS011;9002;42.708;23.186;2024-03-02T09:51:37;28.77;;;14.52;;
8702;SDS011;9002;42.708;23.186;2024-03-02T09:54:06;27.40;;;14.73;;
8702;SDS011;9002;42.708;23.186;2024-03-02T09:56:34;29.92;;;15.98;;
8702;SDS011;9002;42.708;23.186;2024-03-02T09:59:01;30.20;;;17.13;;
8702;SDS011;9002;42.708;23.186;2024-03-02T10:01:28;31.60;;;15.90;;
8702;SDS011;9002;42.708;23.186;2024-03-02T10:03:55;31.83;;;17.73;;
8702;SDS011;9002;42.708;23.186;2024-03-02T10:06:27;33.22;;;17.13;;
8702;SDS011;9002;42.708;23.186;2024-03-02T10:08:55;29.17;;;15.05;;
8702;SDS011;9002;42.708;23.186;2024-03-02T10:11:27;24.00;;;12.65;;
8702;SDS011;9002;42.708;23.186;2024-03-02T10:14:05;27.05;;;15.27;;
8702;SDS011;9002;42.708;23.186;2024-03-02T10:16:36;27.80;;;15.43;;
8702;SDS011;9002;42.708;23.186;2024-03-02T10:19:16;32.92;;;17.55;;
8702;SDS011;9002;42.708;23.186;2024-03-02T10:21:45;31.90;;;16.85;;
8702;SDS011;9002;42.708;23.186;2024-03-02T10:24:12;29.98;;;15.35;;
8702;SDS011;9002;42.708;23.186;2024-03-02T10:26:39;30.02;;;16.20;;
8702;SDS011;9002;42.708;23.186;2024-03-02T10:29:08;29.13;;;15.02;;
8702;SDS011;9002;42.708;23.186;2024-03-02T10:31:36;26.60;;;15.52;;
8702;SDS011;9002;42.708;23.186;2024-03-02T10:34:04;33.17;;;16.77;;
8702;SDS011;9002;42.708;23.186;2024-03-02T10:36:32;29.17;;;17.13;;
8702;SDS011;9002;42.708;23.186;2024-03-02T10:39:02;30.00;;;15.90;;
8702;SDS011;9002;42.708;23.186;2024-03-02T10:41:32;25.48;;;14.93;;
8702;SDS011;9002;42.708;23.186;2024-03-02T10:44:01;23.33;;;13.43;;
8702;SDS011;9002;42.708;23.186;2024-03-02T10:46:30;26.10;;;15.15;;
8702;SDS011;9002;42.708;23.186;2024-03-02T10:48:58;25.33;;;14.75;;
8702;SDS011;9002;42.708;23.186;2024-03-02T10:51:26;30.52;;;14.82;;
8702;SDS011;9002;42.708;23.186;2024-03-02T10:53:56;29.88;;;15.40;;
8702;SDS011;9002;42.708;23.186;2024-03-02T10:56:28;28.25;;;16.05;;
8702;SDS011;9002;42.708;23.186;2024-03-02T10:58:59;31.17;;;15.63;;
8702;SDS011;9002;42.708;23.186;2024-03-02T11:01:31;29.33;;;15.10;;
8702;SDS011;9002;42.708;23.186;2024-03-02T11:03:59;27.88;;;14.63;;
8702;SDS011;9002;42.708;23.186;2024-03-02T11:06:30;28.95;;;15.65;;
8702;SDS011;9002;42.708;23.186;2024-03-02T11:09:04;28.35;;;15.38;;
8702;SDS011;9002;42.708;23.186;2024-03-02T11:11:37;26.23;;;15.63;;
8702;SDS011;9002;42.708;23.186;2024-03-02T11:14:10;27.35;;;14.48;;
8702;SDS011;9002;42.708;23.186;2024-03-02T11:16:41;25.58;;;15.32;;
8702;SDS011;9002;42.708;23.186;2024-03-02T11:19:09;29.10;;;14.90;;
8702;SDS011;9002;42.708;23.186;2024-03-02T11:21:39;25.92;;;15.52;;
8702;SDS011;9002;42.708;23.186;2024-03-02T11:26:59;28.48;;;13.80;;
8702;SDS011;9002;42.708;23.186;2024-03-02T11:32:26;30.85;;;14.65;;
8702;SDS011;9002;42.708;23.186;2024-03-02T11:34:53;28.15;;;14.95;;
8702;SDS011;9002;42.708;23.186;2024-03-02T11:37:23;24.45;;;13.95;;
8702;SDS011;9002;42.708;23.186;2024-03-02T11:39:51;27.38;;;15.90;;
8702;SDS011;9002;42.708;23.186;2024-03-02T11:42:19;29.40;;;16.38;;
8702;SDS011;9002;42.708;23.186;2024-03-02T11:44:47;27.52;;;15.80;;
8702;SDS011;9002;42.708;23.186;2024-03-02T11:47:15;28.65;;;14.80;;
8702;SDS011;9002;42.708;23.186;2024-03-02T11:49:43;26.00;;;15.30;;
8702;SDS011;9002;42.708;23.186;2024-03-02T11:52:12;25.02;;;13.50;;
8702;SDS011;9002;42.708;23.186;2024-03-02T11:54:40;26.73;;;15.85;;
8702;SDS011;9002;42.708;23.186;2024-03-02T11:57:12;28.75;;;17.60;;
8702;SDS011;9002;42.708;23.186;2024-03-02T11:59:41;28.70;;;16.98;;
8702;SDS011;9002;42.708;23.186;2024-03-02T12:02:13;24.52;;;14.88;;
8702;SDS011;9002;42.708;23.186;2024-03-02T12:04:42;28.23;;;14.98;;
8702;SDS011;9002;42.708;23.186;2024-03-02T12:07:10;24.67;;;14.93;;
8702;SDS011;9002;42.708;23.186;2024-03-02T12:09:37;26.25;;;14.45;;
8702;SDS011;9002;42.708;23.186;2024-03-02T12:12:04;25.13;;;15.35;;
8702;SDS011;9002;42.708;23.186;2024-03-02T12:14:33;27.25;;;14.63;;
8702;SDS011;9002;42.708;23.186;2024-03-02T12:17:02;28.00;;;15.25;;
8702;SDS011;9002;42.708;23.186;2024-03-02T12:19:30;24.98;;;13.80;;
8702;SDS011;9002;42.708;23.186;2024-03-02T12:21:57;24.45;;;13.75;;
8702;SDS011;9002;42.708;23.186;2024-03-02T12:24:26;25.90;;;14.80;;
8702;SDS011;9002;42.708;23.186;2024-03-02T12:26:54;27.15;;;13.73;;
8702;SDS011;9002;42.708;23.186;2024-03-02T12:29:21;30.15;;;14.75;;
8702;SDS011;9002;42.708;23.186;2024-03-02T12:31:49;24.63;;;13.65;;
8702;SDS011;9002;42.708;23.186;2024-03-02T12:34:19;28.58;;;16.10;;
8702;SDS011;9002;42.708;23.186;2024-03-02T12:36:47;23.77;;;14.90;;
8702;SDS011;9002;42.708;23.186;2024-03-02T12:39:15;25.13;;;15.35;;
8702;SDS011;9002;42.708;23.186;2024-03-02T12:41:42;26.35;;;14.73;;
8702;SDS011;9002;42.708;23.186;2024-03-02T12:44:10;27.85;;;15.43;;
8702;SDS011;9002;42.708;23.186;2024-03-02T12:46:37;26.65;;;14.23;;
8702;SDS011;9002;42.708;23.186;2024-03-02T12:49:07;26.88;;;13.27;;
8702;SDS011;9002;42.708;23.186;2024-03-02T12:51:38;22.70;;;14.65;;
8702;SDS011;9002;42.708;23.186;2024-03-02T12:54:06;22.58;;;14.55;;
8702;SDS011;9002;42.708;23.186;2024-03-02T12:56:34;28.15;;;13.75;;
8702;SDS011;9002;42.708;23.186;2024-03-02T12:59:01;26.65;;;15.02;;
8702;SDS011;9002;42.708;23.186;2024-03-02T13:01:28;21.42;;;13.57;;
8702;SDS011;9002;42.708;23.186;2024-03-02T13:03:56;22.83;;;14.02;;
8702;SDS011;9002;42.708;23.186;2024-03-02T13:06:25;24.50;;;14.07;;
8702;SDS011;9002;42.708;23.186;2024-03-02T13:08:55;24.98;;;13.18;;
8702;SDS011;9002;42.708;23.186;2024-03-02T13:11:22;24.83;;;14.00;;
8702;SDS011;9002;42.708;23.186;2024-03-02T13:13:50;23.95;;;14.30;;
8702;SDS011;9002;42.708;23.186;2024-03-02T13:16:18;24.67;;;14.52;;
8702;SDS011;9002;42.708;23.186;2024-03-02T13:18:46;21.90;;;13.65;;
8702;SDS011;9002;42.708;23.186;2024-03-02T13:21:13;21.70;;;14.77;;
8702;SDS011;9002;42.708;23.186;2024-03-02T13:23:40;21.13;;;14.15;;
8702;SDS011;9002;42.708;23.186;2024-03-02T13:26:09;24.77;;;15.05;;
8702;SDS011;9002;42.708;23.186;2024-03-02T13:28:38;22.52;;;14.73;;
8702;SDS011;9002;42.708;23.186;2024-03-02T13:31:05;23.48;;;12.75;;
8702;SDS011;9002;42.708;23.186;2024-03-02T13:33:32;22.73;;;14.10;;
8702;SDS011;9002;42.708;23.186;2024-03-02T13:35:59;26.83;;;14.45;;
8702;SDS011;9002;42.708;23.186;2024-03-02T13:38:28;23.40;;;14.40;;
8702;SDS011;9002;42.708;23.186;2024-03-02T13:40:55;22.75;;;14.32;;
8702;SDS011;9002;42.708;23.186;2024-03-02T13:43:24;22.38;;;14.85;;
8702;SDS011;9002;42.708;23.186;2024-03-02T13:45:52;25.08;;;14.93;;
8702;SDS011;9002;42.708;23.186;2024-03-02T13:48:19;26.67;;;16.27;;
8702;SDS011;9002;42.708;23.186;2024-03-02T13:50:46;23.45;;;14.32;;
8702;SDS011;9002;42.708;23.186;2024-03-02T13:53:14;21.60;;;14.40;;
8702;SDS011;9002;42.708;23.186;2024-03-02T13:55:41;24.30;;;14.77;;
8702;SDS011;9002;42.708;23.186;2024-03-02T13:58:08;20.00;;;13.70;;
8702;SDS011;9002;42.708;23.186;2024-03-02T14:00:37;19.30;;;12.55;;
8702;SDS011;9002;42.708;23.186;2024-03-02T14:03:05;20.95;;;14.27;;
8702;SDS011;9002;42.708;23.186;2024-03-02T14:05:33;27.52;;;17.23;;
8702;SDS011;9002;42.708;23.186;2024-03-02T14:08:00;22.35;;;13.13;;
8702;SDS011;9002;42.708;23.186;2024-03-02T14:10:27;23.88;;;13.70;;
8702;SDS011;9002;42.708;23.186;2024-03-02T14:12:54;23.48;;;13.38;;
8702;SDS011;9002;42.708;23.186;2024-03-02T14:15:21;23.05;;;14.20;;
8702;SDS011;9002;42.708;23.186;2024-03-02T14:17:50;26.92;;;16.20;;
8702;SDS011;9002;42.708;23.186;2024-03-02T14:20:17;20.05;;;12.80;;
8702;SDS011;9002;42.708;23.186;2024-03-02T14:22:47;21.23;;;12.70;;
8702;SDS011;9002;42.708;23.186;2024-03-02T14:25:15;24.65;;;14.40;;
8702;SDS011;9002;42.708;23.186;2024-03-02T14:27:44;24.13;;;14.90;;
8702;SDS011;9002;42.708;23.186;2024-03-02T14:30:12;24.88;;;14.57;;
8702;SDS011;9002;42.708;23.186;2024-03-02T14:32:39;27.52;;;15.70;;
8702;SDS011;9002;42.708;23.186;2024-03-02T14:35:08;24.75;;;15.05;;
8702;SDS011;9002;42.708;23.186;2024-03-02T14:37:36;24.92;;;14.05;;
8702;SDS011;9002;42.708;23.186;2024-03-02T14:40:06;23.45;;;14.52;;
8702;SDS011;9002;42.708;23.186;2024-03-02T14:42:34;25.75;;;15.55;;
8702;SDS011;9002;42.708;23.186;2024-03-02T14:45:02;25.48;;;15.73;;
8702;SDS011;9002;42.708;23.186;2024-03-02T14:47:31;23.10;;;14.95;;
8702;SDS011;9002;42.708;23.186;2024-03-02T14:49:58;24.00;;;14.93;;
8702;SDS011;9002;42.708;23.186;2024-03-02T14:52:30;26.55;;;16.05;;
8702;SDS011;9002;42.708;23.186;2024-03-02T14:54:57;25.23;;;14.85;;